Time;durP1;ratioP1;P1;durP2;ratioP2;P2;SDS_P1;SDS_P2;PMS_P1;PMS_P2;Temp;Humidity;BMP_temperature;BMP_pressure;BME280_temperature;BME280_humidity;BME280_pressure;Samples;Min_cycle;Max_cycle;Signal;HPM_P1;HPM_P2
2023/07/01 00:00:03;;;;;;;;;;;;;;;21.53;79.06;99118.34;326626;30;1766;-76
2023/07/01 00:00:17;;;;;;;;;;;;;;;21.52;78.59;99116.66;325582;30;1833;-76
2023/07/01 00:00:27;;;;;;;;;;;;;;;21.53;78.53;99112.16;327004;30;1266;-76
2023/07/01 00:00:40;;;;;;;;;;;;;;;21.54;78.24;99116.50;323404;30;1430;-76
2023/07/01 00:00:50;;;;;;;;;;;;;;;21.53;78.62;99110.34;324187;30;861;-76
2023/07/01 00:01:00;;;;;;;;;;;;;;;21.54;78.77;99119.19;324628;30;960;-76
2023/07/01 00:01:11;;;;;;;;;;;;;;;21.54;78.56;99117.34;325839;30;824;-76
2023/07/01 00:01:21;;;;;;;;;;;;;;;21.54;78.69;99120.03;320620;30;1989;-76
2023/07/01 00:01:31;;;;;;;;;;;;;;;21.53;78.99;99123.66;320099;30;2361;-76
2023/07/01 00:01:41;;;;;;;;;;;;;;;21.54;78.62;99119.19;322177;30;1287;-76
2023/07/01 00:01:52;;;;;;;;;;;;;;;21.54;78.67;99116.50;322721;30;2265;-76
2023/07/01 00:02:03;;;;;;;;;;;;;;;21.52;78.44;99116.66;323627;30;2243;-76
2023/07/01 00:02:14;;;;;;;;;;;;;;;21.54;78.59;99119.19;323980;30;2683;-76
2023/07/01 00:02:24;;;;;;;;;;;;;;;21.55;78.51;99120.84;323400;30;896;-76
2023/07/01 00:02:36;;;;;;;;;;;;;;;21.55;78.49;99116.38;318747;30;2472;-76
2023/07/01 00:02:48;;;;;;;;;;;;;;;21.55;78.99;99115.53;318741;30;1681;-76
2023/07/01 00:02:58;;;;;;;;;;;;;;;21.54;78.98;99120.03;318953;30;1088;-76
2023/07/01 00:03:09;;;;;;;;;;;;;;;21.53;78.41;99118.34;320641;30;1451;-75
2023/07/01 00:03:19;;;;;;;;;;;;;;;21.51;79.15;99114.97;321131;30;2585;-75
2023/07/01 00:03:30;;;;;;;;;;;;;;;21.50;79.25;99113.31;319396;30;3519;-76
2023/07/01 00:03:40;;;;;;;;;;;;;;;21.51;78.97;99108.81;315237;31;5365;-75
2023/07/01 00:03:50;;;;;;;;;;;;;;;21.50;79.28;99121.28;317041;30;5604;-75
2023/07/01 00:04:01;;;;;;;;;;;;;;;21.52;78.86;99116.66;316307;30;2965;-75
2023/07/01 00:04:12;;;;;;;;;;;;;;;21.53;78.89;99113.00;319305;30;3465;-75
2023/07/01 00:04:22;;;;;;;;;;;;;;;21.53;78.88;99113.00;312906;31;3056;-76
2023/07/01 00:04:33;;;;;;;;;;;;;;;21.53;78.81;99113.00;313382;31;3409;-76
2023/07/01 00:04:43;;;;;;;;;;;;;;;21.54;79.13;99111.19;314136;31;1236;-76
2023/07/01 00:04:53;;;;;;;;;;;;;;;21.53;79.06;99113.00;310738;31;1256;-76
2023/07/01 00:05:04;;;;;;;;;;;;;;;21.55;78.87;99116.38;312114;31;2624;-76
2023/07/01 00:05:14;;;;;;;;;;;;;;;21.53;78.92;99113.00;311380;31;2018;-75
2023/07/01 00:05:25;;;;;;;;;;;;;;;21.52;78.95;99114.00;310567;31;1136;-75
2023/07/01 00:05:35;;;;;;;;;;;;;;;21.53;78.90;99118.34;310513;31;2859;-75
2023/07/01 00:05:45;;;;;;;;;;;;;;;21.52;78.66;99113.16;311691;31;3694;-75
2023/07/01 00:05:56;;;;;;;;;;;;;;;21.52;78.62;99121.97;313120;31;1052;-75
2023/07/01 00:06:07;;;;;;;;;;;;;;;21.51;78.60;99114.13;309114;31;3922;-75
2023/07/01 00:06:19;;;;;;;;;;;;;;;21.51;78.53;99109.66;306925;31;4270;-75
2023/07/01 00:06:29;;;;;;;;;;;;;;;21.51;78.99;99112.31;303494;32;4697;-76
2023/07/01 00:06:41;;;;;;;;;;;;;;;21.49;78.96;99119.59;307654;32;953;-76
2023/07/01 00:06:51;;;;;;;;;;;;;;;21.48;78.68;99117.94;309919;31;5139;-76
2023/07/01 00:07:02;;;;;;;;;;;;;;;21.48;78.84;99111.75;306327;32;4328;-75
2023/07/01 00:07:12;;;;;;;;;;;;;;;21.47;78.87;99113.59;306481;32;1223;-75
2023/07/01 00:07:22;;;;;;;;;;;;;;;21.47;79.07;99115.41;309804;31;2999;-76
2023/07/01 00:07:33;;;;;;;;;;;;;;;21.47;79.31;99110.91;307889;31;3674;-75
2023/07/01 00:07:43;;;;;;;;;;;;;;;21.46;78.82;99119.91;303280;32;1316;-75
2023/07/01 00:07:53;;;;;;;;;;;;;;;21.47;79.04;99118.91;306427;32;5144;-76
2023/07/01 00:08:03;;;;;;;;;;;;;;;21.48;78.62;99117.94;306350;32;6409;-76
2023/07/01 00:08:13;;;;;;;;;;;;;;;21.48;78.99;99115.28;303136;32;5968;-76
2023/07/01 00:08:24;;;;;;;;;;;;;;;21.48;78.95;99109.09;297078;33;1220;-76
2023/07/01 00:08:34;;;;;;;;;;;;;;;21.49;79.06;99111.63;295508;33;5921;-76
2023/07/01 00:08:45;;;;;;;;;;;;;;;21.48;78.75;99109.94;294288;32;6881;-76
2023/07/01 00:08:55;;;;;;;;;;;;;;;21.47;79.11;99110.91;297215;33;833;-76
2023/07/01 00:09:05;;;;;;;;;;;;;;;21.47;78.70;99108.25;296392;33;6566;-76
2023/07/01 00:09:15;;;;;;;;;;;;;;;21.46;78.91;99117.22;297072;33;6633;-76
2023/07/01 00:09:25;;;;;;;;;;;;;;;21.46;78.74;99117.22;297252;33;754;-76
2023/07/01 00:09:36;;;;;;;;;;;;;;;21.48;78.73;99119.75;294431;33;4505;-76
2023/07/01 00:09:46;;;;;;;;;;;;;;;21.47;79.13;99108.25;291959;33;5288;-76
2023/07/01 00:09:56;;;;;;;;;;;;;;;21.48;79.15;99106.44;291224;34;1276;-76
2023/07/01 00:10:07;;;;;;;;;;;;;;;21.49;79.07;99118.75;292248;33;7234;-76
2023/07/01 00:10:17;;;;;;;;;;;;;;;21.49;79.07;99111.63;289251;34;8665;-75
2023/07/01 00:10:27;;;;;;;;;;;;;;;21.50;78.82;99112.47;288549;34;1434;-75
2023/07/01 00:10:37;;;;;;;;;;;;;;;21.49;79.21;99114.28;284971;34;8479;-76
2023/07/01 00:10:48;;;;;;;;;;;;;;;21.48;79.10;99109.94;286778;34;9037;-76
2023/07/01 00:12:46;;;;;;;;;;;;;;;21.45;79.63;99112.88;2494904;27;20349;-76
2023/07/01 00:12:56;;;;;;;;;;;;;;;21.45;79.23;99118.22;353158;27;3090;-76
2023/07/01 00:13:07;;;;;;;;;;;;;;;21.45;79.29;99112.06;352841;28;3694;-76
2023/07/01 00:13:17;;;;;;;;;;;;;;;21.44;79.42;99113.88;351798;28;1207;-76
2023/07/01 00:13:30;;;;;;;;;;;;;;;21.42;79.63;99115.84;350346;28;3198;-76
2023/07/01 00:13:40;;;;;;;;;;;;;;;;;;349681;28;1281;-76
2023/07/01 00:13:50;;;;;;;;;;;;;;;21.43;79.86;99111.34;349454;28;1376;-76
2023/07/01 00:14:01;;;;;;;;;;;;;;;21.44;79.95;99116.53;349059;28;1224;-76
2023/07/01 00:14:11;;;;;;;;;;;;;;;21.44;79.43;99113.88;348898;28;943;-76
2023/07/01 00:14:22;;;;;;;;;;;;;;;;;;350391;28;848;-76
2023/07/01 00:14:32;;;;;;;;;;;;;;;21.43;79.36;99112.19;350475;28;1235;-76
2023/07/01 00:14:43;;;;;;;;;;;;;;;;;;351387;28;3002;-76
2023/07/01 00:14:53;;;;;;;;;;;;;;;21.42;79.51;99115.84;351844;28;1198;-76
2023/07/01 00:15:03;;;;;;;;;;;;;;;21.44;79.77;99113.88;350425;28;1321;-76
2023/07/01 00:15:14;;;;;;;;;;;;;;;21.45;79.80;99115.56;351812;28;990;-76
2023/07/01 00:15:24;;;;;;;;;;;;;;;21.45;79.59;99112.88;353197;28;1202;-77
2023/07/01 00:15:34;;;;;;;;;;;;;;;21.45;80.19;99118.22;351825;28;1255;-77
2023/07/01 00:15:44;;;;;;;;;;;;;;;21.45;79.50;99115.56;350520;28;954;-77
2023/07/01 00:15:55;;;;;;;;;;;;;;;21.43;79.56;99120.19;350519;28;986;-77
2023/07/01 00:16:05;;;;;;;;;;;;;;;21.43;79.44;99106.88;349248;28;1063;-77
2023/07/01 00:16:16;;;;;;;;;;;;;;;21.42;79.45;99121.16;351672;28;1097;-77
2023/07/01 00:16:27;;;;;;;;;;;;;;;21.42;79.70;99110.50;350289;28;912;-77
2023/07/01 00:16:39;;;;;;;;;;;;;;;21.43;79.96;99122.00;350371;28;1235;-77
2023/07/01 00:16:50;;;;;;;;;;;;;;;21.42;80.02;99115.00;351956;28;843;-77
2023/07/01 00:17:02;;;;;;;;;;;;;;;21.42;79.85;99115.84;348839;28;1093;-76
2023/07/01 00:17:12;;;;;;;;;;;;;;;;;;349118;28;1361;-76
2023/07/01 00:17:22;;;;;;;;;;;;;;;21.44;80.34;99119.19;348930;28;1304;-76
2023/07/01 00:17:32;;;;;;;;;;;;;;;21.44;80.11;99111.22;349104;28;868;-76
2023/07/01 00:17:43;;;;;;;;;;;;;;;21.45;80.40;99104.06;349061;28;1233;-76
2023/07/01 00:17:56;;;;;;;;;;;;;;;21.45;79.98;99120.88;346344;28;1063;-76
2023/07/01 00:18:06;;;;;;;;;;;;;;;21.45;79.89;99115.56;347593;28;891;-77
2023/07/01 00:18:16;;;;;;;;;;;;;;;21.47;80.34;99116.25;343672;28;853;-76
2023/07/01 00:18:26;;;;;;;;;;;;;;;21.46;79.78;99111.91;346589;28;1313;-76
2023/07/01 00:18:37;;;;;;;;;;;;;;;21.47;79.98;99105.59;347629;28;1307;-76
2023/07/01 00:18:47;;;;;;;;;;;;;;;21.47;79.72;99113.59;347577;28;2723;-76
2023/07/01 00:18:57;;;;;;;;;;;;;;;21.46;79.85;99106.56;348728;28;1336;-76
2023/07/01 00:19:07;;;;;;;;;;;;;;;21.47;79.73;99116.25;347713;28;1234;-76
2023/07/01 00:19:17;;;;;;;;;;;;;;;21.47;80.09;99107.41;349086;28;848;-76
2023/07/01 00:19:28;;;;;;;;;;;;;;;21.46;79.83;99111.91;348972;28;1196;-76
2023/07/01 00:19:38;;;;;;;;;;;;;;;21.47;79.77;99108.25;345684;28;1195;-76
2023/07/01 00:19:48;;;;;;;;;;;;;;;21.47;79.70;99108.25;347750;28;773;-76
2023/07/01 00:19:58;;;;;;;;;;;;;;;21.46;79.94;99106.56;346243;28;1291;-76
2023/07/01 00:20:09;;;;;;;;;;;;;;;21.45;80.59;99104.06;345820;28;816;-76
2023/07/01 00:20:20;;;;;;;;;;;;;;;21.44;80.71;99097.91;344982;28;1301;-76
2023/07/01 00:20:31;;;;;;;;;;;;;;;21.45;80.44;99098.72;343503;28;1198;-76
2023/07/01 00:20:42;;;;;;;;;;;;;;;21.45;80.53;99109.38;344645;28;1367;-76
2023/07/01 00:20:53;;;;;;;;;;;;;;;21.45;80.72;99118.22;344852;28;1329;-76
2023/07/01 00:21:03;;;;;;;;;;;;;;;21.44;80.60;99108.53;344915;28;924;-76
2023/07/01 00:21:13;;;;;;;;;;;;;;;21.44;80.45;99108.53;343258;28;1483;-76
2023/07/01 00:21:23;;;;;;;;;;;;;;;21.44;80.02;99108.53;344313;28;1104;-76
2023/07/01 00:21:34;;;;;;;;;;;;;;;21.45;80.08;99110.22;342242;28;1980;-76
2023/07/01 00:21:44;;;;;;;;;;;;;;;21.46;80.16;99108.41;339576;29;1316;-76
2023/07/01 00:21:54;;;;;;;;;;;;;;;21.45;79.80;99107.56;338701;29;1225;-76
2023/07/01 00:22:06;;;;;;;;;;;;;;;21.46;79.85;99097.75;341038;28;1199;-76
2023/07/01 00:22:16;;;;;;;;;;;;;;;21.45;80.10;99104.91;340756;28;1323;-76
2023/07/01 00:22:26;;;;;;;;;;;;;;;21.45;79.80;99099.56;339080;29;1460;-76
2023/07/01 00:22:37;;;;;;;;;;;;;;;21.45;80.18;99112.88;339652;28;1538;-76
2023/07/01 00:22:47;;;;;;;;;;;;;;;21.45;80.27;99104.06;339633;29;1314;-76
2023/07/01 00:22:57;;;;;;;;;;;;;;;21.44;80.26;99103.22;335749;29;1693;-76
2023/07/01 00:23:07;;;;;;;;;;;;;;;21.42;80.10;99094.53;335692;29;1693;-76
2023/07/01 00:23:18;;;;;;;;;;;;;;;21.42;80.04;99099.88;334515;29;1312;-76
2023/07/01 00:23:28;;;;;;;;;;;;;;;21.42;80.05;99102.53;334729;29;1902;-76
2023/07/01 00:23:38;;;;;;;;;;;;;;;21.42;80.16;99110.50;331483;29;1882;-76
2023/07/01 00:23:48;;;;;;;;;;;;;;;21.42;80.54;99099.88;329473;29;1218;-76
2023/07/01 00:23:59;;;;;;;;;;;;;;;21.42;80.62;99097.19;326707;30;1440;-76
2023/07/01 00:24:09;;;;;;;;;;;;;;;21.41;80.04;99098.19;326565;30;927;-76
2023/07/01 00:24:19;;;;;;;;;;;;;;;21.40;79.93;99104.50;328220;30;1236;-76
2023/07/01 00:24:29;;;;;;;;;;;;;;;21.39;80.22;99105.47;324901;30;1193;-76
2023/07/01 00:24:40;;;;;;;;;;;;;;;21.37;80.09;99107.44;326592;30;1517;-76
2023/07/01 00:24:50;;;;;;;;;;;;;;;21.35;79.76;99098.75;325744;30;1241;-76
2023/07/01 00:25:00;;;;;;;;;;;;;;;21.35;80.04;99101.41;325730;30;1185;-76
2023/07/01 00:25:10;;;;;;;;;;;;;;;21.34;80.09;99113.03;324015;30;2376;-76
2023/07/01 00:25:22;;;;;;;;;;;;;;;21.34;80.08;99102.41;323916;30;2160;-76
2023/07/01 00:25:33;;;;;;;;;;;;;;;21.34;79.78;99112.22;323316;30;1268;-76
2023/07/01 00:25:43;;;;;;;;;;;;;;;21.33;80.24;99105.22;324458;30;2160;-77
2023/07/01 00:25:53;;;;;;;;;;;;;;;21.33;79.91;99110.53;327901;29;2355;-77
2023/07/01 00:26:03;;;;;;;;;;;;;;;21.33;79.99;99110.53;329483;30;812;-77
2023/07/01 00:26:14;;;;;;;;;;;;;;;21.32;80.24;99107.03;325845;30;1770;-77
2023/07/01 00:26:25;;;;;;;;;;;;;;;21.33;80.01;99108.69;326909;30;1421;-77
2023/07/01 00:26:35;;;;;;;;;;;;;;;21.33;80.24;99107.88;329558;30;902;-77
2023/07/01 00:26:45;;;;;;;;;;;;;;;21.32;80.14;99109.69;322260;30;1290;-77
2023/07/01 00:26:55;;;;;;;;;;;;;;;21.32;80.25;99109.69;319877;30;2320;-77
2023/07/01 00:27:06;;;;;;;;;;;;;;;21.32;80.38;99101.69;317058;30;2866;-76
2023/07/01 00:27:16;;;;;;;;;;;;;;;21.31;80.65;99108.00;319951;30;921;-76
2023/07/01 00:27:26;;;;;;;;;;;;;;;21.31;80.59;99112.50;314377;31;3210;-76
2023/07/01 00:27:37;;;;;;;;;;;;;;;21.31;80.22;99113.34;313026;31;3168;-76
2023/07/01 00:27:47;;;;;;;;;;;;;;;21.30;80.36;99116.13;314960;31;1202;-76
2023/07/01 00:27:57;;;;;;;;;;;;;;;21.29;80.86;99102.00;316015;31;2808;-76
2023/07/01 00:28:07;;;;;;;;;;;;;;;21.27;80.66;99103.94;314915;31;2992;-76
2023/07/01 00:28:18;;;;;;;;;;;;;;;21.27;80.80;99101.28;313149;31;914;-76
2023/07/01 00:28:28;;;;;;;;;;;;;;;21.27;80.59;99106.63;314247;31;2240;-76
2023/07/01 00:28:38;;;;;;;;;;;;;;;21.24;80.55;99109.56;315331;31;2012;-76
2023/07/01 00:28:48;;;;;;;;;;;;;;;21.25;80.56;99113.91;315269;31;1370;-76
2023/07/01 00:28:58;;;;;;;;;;;;;;;21.25;80.50;99106.75;311693;31;2552;-76
2023/07/01 00:29:09;;;;;;;;;;;;;;;21.25;80.67;99108.56;308867;31;3265;-76
2023/07/01 00:29:19;;;;;;;;;;;;;;;21.26;80.53;99112.91;309780;31;800;-76
2023/07/01 00:29:29;;;;;;;;;;;;;;;21.25;80.92;99104.09;310661;31;3667;-76
2023/07/01 00:29:39;;;;;;;;;;;;;;;21.26;80.92;99102.28;308090;31;4251;-76
2023/07/01 00:29:50;;;;;;;;;;;;;;;21.27;80.74;99105.78;307703;32;809;-76
2023/07/01 00:30:00;;;;;;;;;;;;;;;21.27;80.40;99103.09;310836;31;4621;-76
2023/07/01 00:30:10;;;;;;;;;;;;;;;21.27;80.66;99101.28;309381;31;3809;-76
2023/07/01 00:30:21;;;;;;;;;;;;;;;21.28;80.51;99108.28;306458;32;3969;-75
2023/07/01 00:30:31;;;;;;;;;;;;;;;21.27;80.47;99101.28;303754;32;4933;-76
2023/07/01 00:30:41;;;;;;;;;;;;;;;21.28;80.91;99102.97;301016;32;3267;-76
2023/07/01 00:30:52;;;;;;;;;;;;;;;21.28;80.77;99108.28;299631;32;3080;-76
2023/07/01 00:31:02;;;;;;;;;;;;;;;21.29;80.72;99104.66;298151;33;843;-77
2023/07/01 00:31:12;;;;;;;;;;;;;;;21.28;80.41;99102.97;296189;33;4561;-76
2023/07/01 00:31:22;;;;;;;;;;;;;;;21.27;80.53;99101.28;293688;33;5292;-76
2023/07/01 00:31:33;;;;;;;;;;;;;;;21.28;80.25;99102.97;292236;33;1148;-77
2023/07/01 00:31:43;;;;;;;;;;;;;;;21.28;80.47;99108.28;289287;33;5495;-76
2023/07/01 00:31:53;;;;;;;;;;;;;;;21.28;80.28;99108.28;288951;33;6100;-76
2023/07/01 00:32:04;;;;;;;;;;;;;;;21.27;79.97;99098.63;291130;34;1128;-76
2023/07/01 00:32:14;;;;;;;;;;;;;;;21.27;79.86;99103.94;290549;33;6205;-76
2023/07/01 00:32:25;;;;;;;;;;;;;;;21.27;80.34;99103.09;286841;34;5647;-76
2023/07/01 00:32:35;;;;;;;;;;;;;;;21.27;80.41;99109.28;286419;34;1259;-76
2023/07/01 00:32:45;;;;;;;;;;;;;;;21.27;80.43;99101.28;281115;35;779;-76
2023/07/01 00:32:55;;;;;;;;;;;;;;;21.26;80.02;99099.59;281472;34;4693;-76
2023/07/01 00:33:06;;;;;;;;;;;;;;;21.26;80.11;99104.94;282209;34;4702;-76
2023/07/01 00:33:16;;;;;;;;;;;;;;;21.27;80.38;99103.09;284767;34;889;-76
2023/07/01 00:33:26;;;;;;;;;;;;;;;21.27;80.34;99111.94;278557;34;6702;-76
2023/07/01 00:35:43;;;;;;;;;;;;;;;21.27;80.30;99101.28;2503770;27;19936;-76
2023/07/01 00:35:53;;;;;;;;;;;;;;;21.24;80.07;99106.91;355167;27;1083;-76
2023/07/01 00:36:03;;;;;;;;;;;;;;;21.25;80.21;99103.25;351753;28;1293;-76
2023/07/01 00:36:14;;;;;;;;;;;;;;;21.24;80.43;99098.91;350429;28;847;-76
2023/07/01 00:36:24;;;;;;;;;;;;;;;21.25;80.54;99103.25;349091;28;1267;-76
2023/07/01 00:36:34;;;;;;;;;;;;;;;21.25;80.29;99109.41;349126;28;888;-76
2023/07/01 00:36:45;;;;;;;;;;;;;;;21.24;80.18;99102.41;349076;28;1314;-76
2023/07/01 00:36:55;;;;;;;;;;;;;;;21.24;80.25;99113.06;349324;28;1388;-76
2023/07/01 00:37:05;;;;;;;;;;;;;;;21.23;80.56;99100.72;348359;28;1165;-76
2023/07/01 00:37:15;;;;;;;;;;;;;;;21.24;80.23;99106.91;350032;28;1218;-76
2023/07/01 00:37:27;;;;;;;;;;;;;;;21.24;80.31;99110.41;350449;28;864;-76
2023/07/01 00:37:37;;;;;;;;;;;;;;;21.24;80.31;99105.06;349170;28;1368;-76
2023/07/01 00:37:48;;;;;;;;;;;;;;;21.24;80.06;99106.91;347607;28;1214;-76
2023/07/01 00:37:58;;;;;;;;;;;;;;;21.23;80.06;99105.22;349033;28;1240;-76
2023/07/01 00:38:08;;;;;;;;;;;;;;;21.22;79.92;99108.91;348536;28;1343;-76
2023/07/01 00:38:18;;;;;;;;;;;;;;;21.22;80.15;99108.91;347630;28;1351;-76
2023/07/01 00:38:29;;;;;;;;;;;;;;;21.21;80.37;99102.72;349013;28;1473;-76
2023/07/01 00:38:39;;;;;;;;;;;;;;;21.20;80.37;99105.50;347787;28;828;-76
2023/07/01 00:38:49;;;;;;;;;;;;;;;21.20;80.38;99108.16;347804;28;1253;-76
2023/07/01 00:38:59;;;;;;;;;;;;;;;21.20;80.14;99109.00;347631;28;1585;-76
2023/07/01 00:39:10;;;;;;;;;;;;;;;21.20;80.00;99105.50;351420;28;1347;-76
2023/07/01 00:39:20;;;;;;;;;;;;;;;21.21;80.42;99107.22;349410;28;1594;-76
2023/07/01 00:39:30;;;;;;;;;;;;;;;21.20;80.42;99105.50;350393;28;1029;-76
2023/07/01 00:39:41;;;;;;;;;;;;;;;21.19;80.54;99109.97;350251;28;3641;-77
2023/07/01 00:39:51;;;;;;;;;;;;;;;21.19;80.34;99114.47;348253;28;5194;-77
2023/07/01 00:40:03;;;;;;;;;;;;;;;21.18;80.43;99110.13;350036;28;5159;-77
2023/07/01 00:40:13;;;;;;;;;;;;;;;21.18;80.03;99107.47;347462;28;3226;-77
2023/07/01 00:40:24;;;;;;;;;;;;;;;21.18;80.46;99104.81;347614;28;1230;-77
2023/07/01 00:40:34;;;;;;;;;;;;;;;21.17;80.43;99105.78;347517;28;1378;-77
2023/07/01 00:40:44;;;;;;;;;;;;;;;21.18;80.44;99110.13;346381;28;793;-77
2023/07/01 00:40:54;;;;;;;;;;;;;;;21.17;80.62;99105.78;346337;28;1342;-77
2023/07/01 00:41:05;;;;;;;;;;;;;;;21.17;80.47;99109.28;345122;28;1184;-77
2023/07/01 00:41:17;;;;;;;;;;;;;;;21.17;80.64;99111.09;346552;28;821;-77
2023/07/01 00:41:27;;;;;;;;;;;;;;;21.16;80.74;99110.25;347665;28;1267;-77
2023/07/01 00:41:38;;;;;;;;;;;;;;;21.17;80.48;99111.09;348390;28;1082;-77
2023/07/01 00:41:54;;;;;;;;;;;;;;;21.17;80.07;99111.09;344943;28;1276;-77
2023/07/01 00:42:04;;;;;;;;;;;;;;;21.18;80.22;99112.78;345046;28;1262;-77
2023/07/01 00:42:15;;;;;;;;;;;;;;;21.17;80.04;99109.28;346200;28;1276;-77
2023/07/01 00:42:25;;;;;;;;;;;;;;;21.17;80.20;99111.09;345966;28;1184;-77
2023/07/01 00:42:35;;;;;;;;;;;;;;;21.16;80.18;99112.09;345348;28;1212;-77
2023/07/01 00:42:45;;;;;;;;;;;;;;;21.14;79.96;99106.06;347548;28;1230;-77
2023/07/01 00:42:55;;;;;;;;;;;;;;;21.14;80.29;99114.06;345374;28;1220;-77
2023/07/01 00:43:06;;;;;;;;;;;;;;;21.12;80.41;99111.53;346224;28;1182;-77
2023/07/01 00:43:16;;;;;;;;;;;;;;;21.13;80.23;99115.03;347798;28;911;-77
2023/07/01 00:43:26;;;;;;;;;;;;;;;21.12;80.03;99114.19;346153;28;1240;-77
2023/07/01 00:43:36;;;;;;;;;;;;;;;21.13;80.19;99109.72;345428;28;1325;-76
2023/07/01 00:43:47;;;;;;;;;;;;;;;21.15;80.33;99113.06;342028;28;1245;-76
2023/07/01 00:43:57;;;;;;;;;;;;;;;21.14;79.70;99111.38;340705;29;1324;-76
2023/07/01 00:44:07;;;;;;;;;;;;;;;21.14;80.11;99106.91;341457;28;1165;-76
2023/07/01 00:44:17;;;;;;;;;;;;;;;21.15;79.79;99113.06;342102;28;1242;-76
2023/07/01 00:44:28;;;;;;;;;;;;;;;21.15;79.73;99107.75;339859;29;1100;-76
2023/07/01 00:44:38;;;;;;;;;;;;;;;21.15;80.01;99110.41;341216;28;1255;-76
2023/07/01 00:44:48;;;;;;;;;;;;;;;21.15;79.82;99107.75;340789;29;1316;-76
2023/07/01 00:44:58;;;;;;;;;;;;;;;21.16;79.59;99114.75;340921;29;759;-76
2023/07/01 00:45:09;;;;;;;;;;;;;;;21.15;79.52;99108.59;342123;28;1317;-76
2023/07/01 00:45:19;;;;;;;;;;;;;;;21.16;79.75;99109.44;340844;29;1330;-76
2023/07/01 00:45:29;;;;;;;;;;;;;;;21.16;79.91;99109.44;340953;29;862;-76
2023/07/01 00:45:39;;;;;;;;;;;;;;;21.16;79.38;99110.25;340260;28;1355;-76
2023/07/01 00:45:49;;;;;;;;;;;;;;;21.16;79.75;99109.44;339995;28;1890;-76
2023/07/01 00:46:00;;;;;;;;;;;;;;;21.15;79.54;99110.41;335655;29;1304;-76
2023/07/01 00:46:10;;;;;;;;;;;;;;;21.12;79.93;99106.22;336271;29;1927;-76
2023/07/01 00:46:21;;;;;;;;;;;;;;;21.10;79.99;99108.16;338143;29;1363;-76
2023/07/01 00:46:32;;;;;;;;;;;;;;;21.10;79.80;99113.50;338110;29;1849;-76
2023/07/01 00:46:42;;;;;;;;;;;;;;;21.10;79.81;99112.66;335854;29;791;-77
2023/07/01 00:46:53;;;;;;;;;;;;;;;21.09;80.04;99106.50;334227;29;1564;-77
2023/07/01 00:47:03;;;;;;;;;;;;;;;21.11;79.66;99117.84;336031;29;819;-77
2023/07/01 00:47:13;;;;;;;;;;;;;;;21.10;80.08;99116.16;338310;29;980;-77
2023/07/01 00:47:23;;;;;;;;;;;;;;;21.09;79.90;99113.63;334675;29;1520;-77
2023/07/01 00:47:34;;;;;;;;;;;;;;;21.10;80.26;99115.31;331202;29;1987;-77
2023/07/01 00:47:44;;;;;;;;;;;;;;;21.10;79.83;99117.97;328352;30;800;-77
2023/07/01 00:47:54;;;;;;;;;;;;;;;21.09;80.09;99114.47;328063;29;1969;-77
2023/07/01 00:48:05;;;;;;;;;;;;;;;21.08;79.74;99117.28;330033;29;2468;-77
2023/07/01 00:48:23;;;;;;;;;;;;;;;21.08;79.91;99115.44;333203;29;791;-77
2023/07/01 00:48:33;;;;;;;;;;;;;;;21.09;80.21;99113.63;328715;30;2326;-77
2023/07/01 00:48:43;;;;;;;;;;;;;;;21.08;80.12;99114.59;324736;30;789;-77
2023/07/01 00:48:54;;;;;;;;;;;;;;;21.08;80.04;99117.28;324144;30;3861;-77
2023/07/01 00:49:04;;;;;;;;;;;;;;;21.08;80.07;99111.94;322615;30;3230;-77
2023/07/01 00:49:14;;;;;;;;;;;;;;;21.07;80.08;99112.94;325620;30;3183;-77
2023/07/01 00:49:24;;;;;;;;;;;;;;;21.08;79.97;99122.59;327321;30;1652;-77
2023/07/01 00:49:35;;;;;;;;;;;;;;;21.07;79.84;99115.59;327476;29;5428;-77
2023/07/01 00:49:45;;;;;;;;;;;;;;;21.07;79.86;99115.59;328973;30;857;-76
2023/07/01 00:49:55;;;;;;;;;;;;;;;21.08;79.71;99111.94;326706;30;2560;-76
2023/07/01 00:50:09;;;;;;;;;;;;;;;21.06;80.04;99114.75;325512;30;2705;-76
2023/07/01 00:50:20;;;;;;;;;;;;;;;21.06;79.75;99113.91;325011;30;2946;-76
2023/07/01 00:50:30;;;;;;;;;;;;;;;21.05;80.25;99115.72;322139;30;1209;-76
2023/07/01 00:50:40;;;;;;;;;;;;;;;21.06;80.28;99116.56;321845;30;3539;-76
2023/07/01 00:50:51;;;;;;;;;;;;;;;21.06;80.37;99113.91;317392;30;2983;-76
2023/07/01 00:51:01;;;;;;;;;;;;;;;21.07;80.34;99110.28;317612;31;814;-76
2023/07/01 00:51:11;;;;;;;;;;;;;;;21.06;80.10;99119.22;317106;31;2705;-77
2023/07/01 00:51:22;;;;;;;;;;;;;;;21.05;80.11;99112.22;314859;31;2235;-77
2023/07/01 00:51:32;;;;;;;;;;;;;;;21.06;79.86;99112.09;314759;31;2464;-77
2023/07/01 00:51:42;;;;;;;;;;;;;;;21.06;79.94;99114.75;314152;31;937;-77
2023/07/01 00:51:52;;;;;;;;;;;;;;;21.07;79.96;99115.59;315432;31;3119;-77
2023/07/01 00:52:03;;;;;;;;;;;;;;;21.07;80.00;99115.59;315710;31;3778;-76
2023/07/01 00:52:13;;;;;;;;;;;;;;;21.07;79.97;99110.28;316426;31;870;-76
2023/07/01 00:52:23;;;;;;;;;;;;;;;21.09;80.20;99108.31;315621;31;3962;-76
2023/07/01 00:52:33;;;;;;;;;;;;;;;21.08;79.72;99112.78;314203;31;4478;-76
2023/07/01 00:52:43;;;;;;;;;;;;;;;21.09;79.72;99118.94;312998;31;894;-76
2023/07/01 00:52:54;;;;;;;;;;;;;;;21.08;80.13;99111.94;310171;31;4360;-76
2023/07/01 00:53:04;;;;;;;;;;;;;;;21.09;79.69;99118.94;308658;31;4111;-76
2023/07/01 00:53:14;;;;;;;;;;;;;;;21.09;79.86;99110.97;307574;32;1306;-76
2023/07/01 00:53:24;;;;;;;;;;;;;;;21.08;80.12;99118.13;307271;32;3722;-76
2023/07/01 00:53:35;;;;;;;;;;;;;;;21.06;79.77;99114.75;307785;31;3131;-76
2023/07/01 00:53:45;;;;;;;;;;;;;;;21.06;80.25;99114.75;309767;31;800;-76
2023/07/01 00:53:55;;;;;;;;;;;;;;;21.06;79.81;99113.91;306806;32;3462;-77
2023/07/01 00:54:06;;;;;;;;;;;;;;;21.05;79.69;99117.56;303806;32;4296;-77
2023/07/01 00:54:16;;;;;;;;;;;;;;;21.05;79.88;99109.56;302275;32;1227;-78
2023/07/01 00:54:26;;;;;;;;;;;;;;;21.04;79.75;99115.88;297088;32;5110;-77
2023/07/01 00:54:36;;;;;;;;;;;;;;;21.05;79.62;99117.56;297677;32;6537;-77
2023/07/01 00:54:47;;;;;;;;;;;;;;;21.03;80.13;99111.53;298237;33;1243;-77
2023/07/01 00:54:57;;;;;;;;;;;;;;;21.02;80.09;99118.69;296062;33;1213;-77
2023/07/01 00:55:07;;;;;;;;;;;;;;;21.03;79.80;99108.88;294131;33;6417;-77
2023/07/01 00:55:17;;;;;;;;;;;;;;;21.03;80.06;99114.19;294154;33;5930;-77
2023/07/01 00:55:28;;;;;;;;;;;;;;;21.01;79.95;99109.00;293237;33;1217;-77
2023/07/01 00:55:38;;;;;;;;;;;;;;;21.01;79.92;99110.84;292333;33;5214;-77
2023/07/01 00:55:48;;;;;;;;;;;;;;;21.00;80.01;99109.16;289185;33;4466;-77
2023/07/01 00:55:58;;;;;;;;;;;;;;;21.00;79.75;99115.31;290283;34;1260;-77
2023/07/01 00:56:08;;;;;;;;;;;;;;;21.01;80.12;99113.50;291761;33;6151;-77
2023/07/01 00:56:19;;;;;;;;;;;;;;;21.00;80.23;99111.81;291363;33;6180;-77
2023/07/01 00:56:29;;;;;;;;;;;;;;;21.00;79.82;99109.16;295262;33;993;-77
2023/07/01 00:56:39;;;;;;;;;;;;;;;21.01;79.85;99113.50;289045;33;7760;-77
2023/07/01 00:56:50;;;;;;;;;;;;;;;21.01;79.94;99109.00;285796;34;9122;-77
2023/07/01 00:57:03;;;;;;;;;;;;;;;21.02;79.86;99109.84;284589;34;1291;-77
2023/07/01 00:57:14;;;;;;;;;;;;;;;21.03;79.70;99111.53;285444;34;1271;-77
2023/07/01 00:59:16;;;;;;;;;;;;;;;21.03;80.23;99108.88;2484129;27;20318;-77
2023/07/01 00:59:27;;;;;;;;;;;;;;;21.03;80.21;99109.72;353261;28;1194;-77
2023/07/01 00:59:38;;;;;;;;;;;;;;;21.03;79.69;99114.19;351850;28;820;-77
2023/07/01 00:59:48;;;;;;;;;;;;;;;21.02;79.64;99113.34;347600;28;1311;-77
2023/07/01 00:59:58;;;;;;;;;;;;;;;21.03;80.02;99111.53;347684;28;1257;-77
2023/07/01 01:00:10;;;;;;;;;;;;;;;21.04;79.97;99105.22;347578;28;3286;-77
2023/07/01 01:00:20;;;;;;;;;;;;;;;21.04;79.89;99107.88;350252;28;1352;-77
2023/07/01 01:00:30;;;;;;;;;;;;;;;21.04;79.72;99105.22;350491;28;911;-77
2023/07/01 01:00:40;;;;;;;;;;;;;;;21.05;79.88;99112.22;349076;28;891;-77
2023/07/01 01:00:51;;;;;;;;;;;;;;;21.05;79.58;99112.22;348976;28;852;-77
2023/07/01 01:01:02;;;;;;;;;;;;;;;21.04;79.57;99111.41;344723;28;1206;-77
2023/07/01 01:01:13;;;;;;;;;;;;;;;21.03;79.52;99112.38;347588;28;934;-77
2023/07/01 01:01:28;;;;;;;;;;;;;;;21.02;80.07;99104.53;348554;28;1109;-77
2023/07/01 01:01:39;;;;;;;;;;;;;;;21.01;79.73;99110.84;348586;28;1216;-77
2023/07/01 01:01:50;;;;;;;;;;;;;;;21.01;79.76;99106.34;349251;28;880;-77
2023/07/01 01:02:03;;;;;;;;;;;;;;;20.99;79.58;99112.78;349142;28;892;-77
2023/07/01 01:02:18;;;;;;;;;;;;;;;21.00;79.58;99106.50;346352;28;825;-77